AirNav   ProFlight Series 2 Aviation Headset
 
 459 users online  

3IS4 Merkle Airport
Hanover, Illinois, USA

GOING TO HANOVER?


FAA INFORMATION EFFECTIVE 18 JUNE 2020

Location

FAA Identifier: 3IS4
Lat/Long: 42-17-20.0510N 090-20-43.4620W
42-17.334183N 090-20.724367W
42.2889031,-90.3454061
(estimated)
Elevation: 970 ft. / 296 m (estimated)
Variation: 01E (1985)
From city: 3 miles W of HANOVER, IL
Time zone: UTC -5 (UTC -6 during Standard Time)
Zip code: 61041

Airport Operations

Airport use: Private use. Permission required prior to landing
Activation date: 12/1983
Control tower: no
ARTCC: CHICAGO CENTER
FSS: KANKAKEE FLIGHT SERVICE STATION
Attendance: UNATNDD
Wind indicator: no
Segmented circle: no

Airport Communications

WX ASOS at DBQ (18 nm NW): PHONE 563-557-2579
WX AWOS-3 at SFY (18 nm SE): 118.650 (815-273-4429)

Nearby radio navigation aids

VOR radial/distance  VOR name  Freq  Var
DBQr109/17.5DUBUQUE VORTAC115.8004E
CVAr006/35.4DAVENPORT VORTAC113.8004E

 
NDB name  Hdg/Dist  Freq  Var  ID
ZILOM096/11.434104EDB -.. -...

Airport Services

Runway Information

Runway 18/36

Dimensions: 2900 x 100 ft. / 884 x 30 m
Surface: turf
Runway edge lights: low intensity
RUNWAY 18  RUNWAY 36
Traffic pattern: leftleft
Displaced threshold: 300 ft.no
Obstructions: road, 300 ft. from runway4 ft. fence, 200 ft. from runway

Airport Ownership and Management from official FAA records

Ownership: Privately-owned
Owner: BETTY LOU MERKLE
6964 BEATY HOLLOW ROAD
HANOVER, IL 61041
Phone 815-777-1778
Manager: BETTY LOU MERKLE
6964 BEATY HOLLOW ROAD
HANOVER, IL 61041
Phone 815-777-1778

Airport Operational Statistics

Aircraft based on the field: 1
Single engine airplanes: 1
    

Additional Remarks

FOR CD CTC CHICAGO ARTCC AT 630-906-8921.

Instrument Procedures

There are no published instrument procedures at 3IS4.

Some nearby airports with instrument procedures:

KDBQ - Dubuque Regional Airport (18 nm NW)
KSFY - Tri-Township Airport (18 nm SE)
KOQW - Maquoketa Municipal Airport (23 nm SW)
KPVB - Platteville Municipal Airport (24 nm N)
KCWI - Clinton Municipal Airport (27 nm S)
 
Loc | Ops | Rwys | IFR | FBO | Links
Com | Nav | Svcs | Stats | Notes
Area around 3IS4 (Merkle Airport)
 
Road maps at: MapQuest Bing Google
 
Aerial photo
No photo
 
Sectional chart

 
Airport distance calculator
Flying to Merkle Airport? Find the distance to fly.

From to 3IS4

Sunrise and sunset
Times for 15-Jul-2020
 Local
(UTC-5)
 Zulu
(UTC)
Morning civil twilight05:0710:07
Sunrise05:4010:40
Sunset20:3501:35
Evening civil twilight21:0802:08

Current date and time
Zulu (UTC)  15-Jul-2020 05:21:24
Local (UTC-5)  15-Jul-2020 00:21:24
 
METAR
KDBQ 
17nm NW 
150453Z AUTO 16007KT 10SM -RA BKN040 BKN060 BKN110 23/23 A2996 RMK AO2 LTG DSNT NE AND NW SLP138 P0001 T02330228
KSFY 
18nm SE 
150455Z AUTO 00000KT 10SM CLR 24/22 A2996 RMK AO2 LTG DSNT NW
KPVB 
24nm N 
150455Z AUTO 12004KT 10SM SCT041 BKN050 OVC085 23/23 A2998 RMK AO1 P0003 T02330233
KCWI 
28nm S 
150456Z AUTO 16008KT 10SM CLR 24/22 A2997 RMK AO2 SLP144 T02440222
KFEP 
34nm E 
150455Z AUTO 14004KT 10SM SCT046 23/21 A2999 RMK AO2 LTG DSNT N AND NE T02250207
TAF
KDBQ 
17nm NW 
150211Z 1502/1524 17007KT P6SM -RA OVC100 FM150500 16007KT P6SM OVC050 TEMPO 1505/1509 3SM -TSRA BKN030CB FM151500 05007KT 6SM -SHRA OVC025 FM152000 05006KT P6SM -RA OVC035
NOTAMs
Click for the latest NOTAMs
NOTAMs are issued by the DoD/FAA and will open in a separate window not controlled by AirNav.

 

 
 

Would you like to see your business listed on this page?

 If your business provides an interesting product or service to pilots, flight crews, aircraft, or users of the Merkle Airport, you should consider listing it here.  To start the listing process, click on the button below
 
Add a business
 

Other Pages about Merkle Airport

Update a link
 
Copyright © AirNav, LLC. All rights reserved. Privacy Policy  Contact